createdAt,value
2023-03-15T00:00:10.062Z,0.80
2023-03-15T00:02:36.980Z,0.80
2023-03-15T00:05:04.122Z,0.80
2023-03-15T00:07:30.993Z,0.80
2023-03-15T00:09:57.862Z,0.80
2023-03-15T00:15:14.096Z,0.60
2023-03-15T00:20:27.788Z,0.50
2023-03-15T00:25:43.846Z,0.60
2023-03-15T00:34:07.250Z,0.70
2023-03-15T00:39:21.206Z,0.70
2023-03-15T00:44:34.713Z,0.70
2023-03-15T00:47:01.476Z,0.70
2023-03-15T00:49:28.248Z,0.60
2023-03-15T00:51:55.762Z,0.60
2023-03-15T00:54:22.524Z,0.50
2023-03-15T00:56:49.464Z,0.60
2023-03-15T00:59:16.257Z,0.60
2023-03-15T01:01:43.172Z,0.50
2023-03-15T01:04:10.549Z,0.50
2023-03-15T01:06:37.423Z,0.50
2023-03-15T01:09:04.637Z,0.50
2023-03-15T01:11:31.612Z,0.50
2023-03-15T01:13:59.330Z,0.50
2023-03-15T01:16:27.894Z,0.50
2023-03-15T01:18:54.729Z,0.40
2023-03-15T01:21:23.694Z,0.40
2023-03-15T01:23:50.975Z,0.40
2023-03-15T01:26:18.098Z,0.40
2023-03-15T01:28:46.574Z,0.40
2023-03-15T01:34:07.460Z,0.40
2023-03-15T01:36:34.264Z,0.30
2023-03-15T01:39:01.000Z,0.30
2023-03-15T01:41:27.787Z,0.30
2023-03-15T01:43:54.985Z,0.20
2023-03-15T01:46:28.592Z,0.30
2023-03-15T01:49:08.944Z,0.20
2023-03-15T01:52:02.894Z,0.20
2023-03-15T01:54:59.483Z,0.20
2023-03-15T01:57:51.126Z,0.10
2023-03-15T02:00:20.073Z,0.10
2023-03-15T02:02:55.067Z,0.20
2023-03-15T02:05:25.851Z,0.10
2023-03-15T02:07:53.597Z,0.10
2023-03-15T02:10:37.008Z,0.10
2023-03-15T02:13:04.313Z,0.10
2023-03-15T02:15:31.337Z,0.10
2023-03-15T02:17:58.198Z,0.10
2023-03-15T02:23:40.761Z,0.00
2023-03-15T02:26:32.000Z,0.00
2023-03-15T02:28:59.093Z,0.00
2023-03-15T02:34:12.709Z,0.00
2023-03-15T02:36:39.462Z,0.00
2023-03-15T02:39:17.952Z,0.10
2023-03-15T02:41:49.455Z,0.10
2023-03-15T02:44:23.233Z,0.10
2023-03-15T02:46:52.607Z,0.00
2023-03-15T02:52:11.163Z,-0.10
2023-03-15T02:57:24.637Z,-0.10
2023-03-15T03:02:38.096Z,-0.10
2023-03-15T03:05:05.406Z,-0.10
2023-03-15T03:07:32.159Z,-0.10
2023-03-15T03:09:58.896Z,-0.10
2023-03-15T03:12:25.668Z,-0.10
2023-03-15T03:14:52.425Z,0.00
2023-03-15T03:17:19.184Z,0.00
2023-03-15T03:19:45.999Z,0.10
2023-03-15T03:22:12.729Z,0.20
2023-03-15T03:24:39.876Z,0.20
2023-03-15T03:27:06.630Z,0.20
2023-03-15T03:29:33.388Z,0.30
2023-03-15T03:32:00.152Z,0.30
2023-03-15T03:34:26.895Z,0.40
2023-03-15T03:36:53.672Z,0.40
2023-03-15T03:39:20.448Z,0.50
2023-03-15T03:41:47.219Z,0.50
2023-03-15T03:44:14.062Z,0.50
2023-03-15T03:46:40.873Z,0.60
2023-03-15T03:49:07.696Z,0.60
2023-03-15T03:51:34.497Z,0.70
2023-03-15T03:54:02.183Z,0.70
2023-03-15T03:56:28.979Z,0.70
2023-03-15T03:58:55.760Z,0.70
2023-03-15T04:01:22.640Z,0.70
2023-03-15T04:03:49.700Z,0.60
2023-03-15T04:09:03.545Z,0.70
2023-03-15T04:14:16.982Z,0.70
2023-03-15T04:16:43.717Z,0.70
2023-03-15T04:19:10.521Z,0.70
2023-03-15T04:21:37.300Z,0.70
2023-03-15T04:24:04.260Z,0.70
2023-03-15T04:26:31.027Z,0.70
2023-03-15T04:28:59.129Z,0.80
2023-03-15T04:31:26.153Z,0.70
2023-03-15T04:33:54.343Z,0.80
2023-03-15T04:36:22.644Z,0.70
2023-03-15T04:38:50.459Z,0.70
2023-03-15T04:41:18.462Z,0.70
2023-03-15T04:43:45.221Z,0.60
2023-03-15T04:46:12.358Z,0.60
2023-03-15T04:48:39.225Z,0.60
2023-03-15T04:51:06.079Z,0.60
2023-03-15T04:53:32.855Z,0.60
2023-03-15T04:55:59.622Z,0.60
2023-03-15T04:58:26.535Z,0.60
2023-03-15T05:00:54.211Z,0.60
2023-03-15T05:03:21.134Z,0.60
2023-03-15T05:05:48.033Z,0.60
2023-03-15T05:08:15.259Z,0.60
2023-03-15T05:10:42.014Z,0.60
2023-03-15T05:13:08.808Z,0.70
2023-03-15T05:15:35.578Z,0.70
2023-03-15T05:18:02.325Z,0.60
2023-03-15T05:20:29.099Z,0.70
2023-03-15T05:22:55.833Z,0.60
2023-03-15T05:28:09.318Z,0.60
2023-03-15T05:33:22.760Z,0.60
2023-03-15T05:38:36.153Z,0.50
2023-03-15T05:41:02.937Z,0.50
2023-03-15T05:43:29.663Z,0.50
2023-03-15T05:45:56.423Z,0.50
2023-03-15T05:48:23.245Z,0.50
2023-03-15T05:50:49.988Z,0.50
2023-03-15T05:53:16.739Z,0.50
2023-03-15T05:55:43.510Z,0.50
2023-03-15T05:58:10.270Z,0.50
2023-03-15T06:00:37.094Z,0.50
2023-03-15T06:03:03.983Z,0.50
2023-03-15T06:05:30.763Z,0.50
2023-03-15T06:07:57.516Z,0.50
2023-03-15T06:10:24.425Z,0.50
2023-03-15T06:12:51.160Z,0.50
2023-03-15T06:15:19.373Z,0.60
2023-03-15T06:17:46.131Z,0.70
2023-03-15T06:20:13.298Z,0.80
2023-03-15T06:22:40.049Z,0.80
2023-03-15T06:25:07.853Z,0.90
2023-03-15T06:30:21.383Z,1.00
2023-03-15T06:35:34.823Z,0.90
2023-03-15T06:40:48.483Z,0.90
2023-03-15T06:43:15.228Z,0.80
2023-03-15T06:45:41.999Z,0.90
2023-03-15T06:48:08.755Z,0.80
2023-03-15T06:50:46.382Z,0.90
2023-03-15T06:53:14.724Z,0.90
2023-03-15T06:55:41.502Z,1.00
2023-03-15T06:58:08.271Z,1.00
2023-03-15T07:00:35.110Z,1.00
2023-03-15T07:03:02.060Z,0.90
2023-03-15T07:05:28.894Z,0.90
2023-03-15T07:07:55.839Z,1.00
2023-03-15T07:10:22.593Z,1.10
2023-03-15T07:12:49.396Z,1.10
2023-03-15T07:15:17.442Z,1.30
2023-03-15T07:17:44.455Z,1.30
2023-03-15T07:20:11.859Z,1.50
2023-03-15T07:25:25.398Z,1.70
2023-03-15T07:27:53.303Z,1.80
2023-03-15T07:30:21.520Z,1.80
2023-03-15T07:32:48.425Z,2.00
2023-03-15T07:35:15.384Z,2.10
2023-03-15T07:40:28.803Z,2.00
2023-03-15T07:45:42.776Z,2.20
2023-03-15T07:50:56.967Z,2.30
2023-03-15T07:53:24.246Z,2.50
2023-03-15T07:55:51.016Z,2.50
2023-03-15T07:58:20.292Z,2.80
2023-03-15T08:00:47.655Z,3.60
2023-03-15T08:03:14.585Z,7.00
2023-03-15T08:05:41.454Z,8.40
2023-03-15T08:08:08.237Z,9.30
2023-03-15T08:10:35.075Z,9.50
2023-03-15T08:13:01.868Z,9.80
2023-03-15T08:15:37.672Z,8.70
2023-03-15T08:18:05.945Z,7.60
2023-03-15T08:20:33.312Z,8.60
2023-03-15T08:23:00.132Z,8.10
2023-03-15T08:25:27.717Z,8.80
2023-03-15T08:27:54.582Z,9.60
2023-03-15T08:30:21.675Z,9.40
2023-03-15T08:32:49.870Z,10.90
2023-03-15T08:35:18.474Z,11.00
2023-03-15T08:37:45.290Z,11.50
2023-03-15T08:40:12.614Z,10.70
2023-03-15T08:42:39.449Z,11.00
2023-03-15T08:45:07.990Z,9.40
2023-03-15T08:47:35.607Z,10.60
2023-03-15T08:50:03.657Z,10.40
2023-03-15T08:52:30.364Z,9.40
2023-03-15T08:57:44.005Z,5.80
2023-03-15T09:02:59.114Z,4.70
2023-03-15T09:05:26.498Z,4.50
2023-03-15T09:07:53.336Z,4.30
2023-03-15T09:10:20.353Z,4.40
2023-03-15T09:12:49.677Z,3.80
2023-03-15T09:15:16.853Z,3.40
2023-03-15T09:17:43.813Z,3.40
2023-03-15T09:25:30.988Z,3.00
2023-03-15T09:27:57.713Z,2.90
2023-03-15T09:30:24.726Z,3.10
2023-03-15T09:32:51.733Z,3.20
2023-03-15T09:35:20.416Z,3.40
2023-03-15T09:37:48.890Z,3.90
2023-03-15T09:40:23.905Z,4.70
2023-03-15T09:42:56.608Z,4.80
2023-03-15T09:45:41.264Z,5.10
2023-03-15T09:48:10.810Z,4.70
2023-03-15T09:50:59.619Z,4.80
2023-03-15T09:53:54.851Z,5.10
2023-03-15T09:59:49.112Z,5.70
2023-03-15T10:02:29.453Z,6.50
2023-03-15T10:05:06.419Z,6.80
2023-03-15T10:10:26.253Z,7.10
2023-03-15T10:13:01.646Z,7.90
2023-03-15T10:15:40.273Z,7.30
2023-03-15T10:18:34.085Z,7.10
2023-03-15T10:21:32.854Z,7.30
2023-03-15T10:24:02.726Z,8.20
2023-03-15T10:29:25.764Z,8.80
2023-03-15T10:34:40.930Z,9.10
2023-03-15T10:37:09.570Z,9.10
2023-03-15T10:39:36.305Z,9.30
2023-03-15T10:42:03.694Z,8.80
2023-03-15T10:44:30.445Z,8.50
2023-03-15T10:47:22.440Z,8.30
2023-03-15T10:49:55.632Z,8.30
2023-03-15T10:52:36.807Z,9.20
2023-03-15T10:55:16.411Z,9.30
2023-03-15T10:57:58.254Z,9.10
2023-03-15T11:00:35.984Z,8.50
2023-03-15T11:03:18.476Z,9.00
2023-03-15T11:05:48.292Z,8.60
2023-03-15T11:08:17.849Z,8.10
2023-03-15T11:10:45.774Z,7.70
2023-03-15T11:13:21.271Z,7.70
2023-03-15T11:16:00.493Z,8.40
2023-03-15T11:18:35.311Z,8.50
2023-03-15T11:21:07.053Z,8.90
2023-03-15T11:23:44.567Z,9.30
2023-03-15T11:26:32.290Z,9.70
2023-03-15T11:29:04.519Z,8.80
2023-03-15T11:34:55.776Z,8.90
2023-03-15T11:37:30.659Z,8.20
2023-03-15T11:40:21.241Z,8.80
2023-03-15T11:43:01.790Z,9.40
2023-03-15T11:45:56.056Z,9.10
2023-03-15T11:48:34.361Z,9.50
2023-03-15T11:51:01.970Z,10.00
2023-03-15T11:53:53.906Z,9.70
2023-03-15T11:56:44.529Z,9.30
2023-03-15T12:02:12.612Z,8.60
2023-03-15T12:07:19.341Z,8.30
2023-03-15T12:12:57.592Z,7.10
2023-03-15T12:15:27.220Z,7.20
2023-03-15T12:18:04.557Z,7.80
2023-03-15T12:20:38.820Z,7.60
2023-03-15T12:23:17.418Z,7.50
2023-03-15T12:29:22.949Z,9.50
2023-03-15T12:31:57.495Z,10.00
2023-03-15T12:37:45.039Z,9.10
2023-03-15T12:40:17.660Z,8.50
2023-03-15T12:42:44.337Z,8.30
2023-03-15T12:45:17.208Z,8.10
2023-03-15T12:51:04.897Z,7.30
2023-03-15T12:53:34.595Z,7.60
2023-03-15T13:02:44.597Z,7.70
2023-03-15T13:05:20.198Z,7.20
2023-03-15T13:07:52.035Z,7.00
2023-03-15T13:10:36.815Z,7.30
2023-03-15T13:13:40.524Z,7.00
2023-03-15T13:16:28.692Z,7.60
2023-03-15T13:18:59.649Z,7.40
2023-03-15T13:21:58.447Z,7.20
2023-03-15T13:25:04.934Z,7.00
2023-03-15T13:27:51.758Z,6.80
2023-03-15T13:30:47.466Z,6.40
2023-03-15T13:33:31.736Z,5.80
2023-03-15T13:36:18.853Z,5.20
2023-03-15T13:38:49.328Z,4.30
2023-03-15T13:41:28.576Z,4.10
2023-03-15T13:43:58.011Z,4.00
2023-03-15T13:49:13.638Z,5.20
2023-03-15T13:54:33.630Z,6.60
2023-03-15T13:59:41.005Z,7.40
2023-03-15T14:02:12.911Z,6.80
2023-03-15T14:04:39.757Z,6.80
2023-03-15T14:07:29.950Z,6.20
2023-03-15T14:10:27.449Z,6.00
2023-03-15T14:12:55.143Z,5.90
2023-03-15T14:15:35.607Z,5.80
2023-03-15T14:18:08.600Z,5.60
2023-03-15T14:21:03.252Z,5.50
2023-03-15T14:26:27.782Z,5.40
2023-03-15T14:29:06.639Z,5.60
2023-03-15T14:31:40.196Z,5.50
2023-03-15T14:34:35.793Z,5.70
2023-03-15T14:37:08.689Z,5.90
2023-03-15T14:39:42.358Z,6.80
2023-03-15T14:42:11.977Z,7.10
2023-03-15T14:44:38.772Z,7.50
2023-03-15T14:47:16.566Z,8.00
2023-03-15T14:49:43.494Z,7.60
2023-03-15T14:52:13.271Z,7.10
2023-03-15T14:54:46.780Z,7.10
2023-03-15T14:57:13.582Z,6.50
2023-03-15T15:02:28.064Z,6.10
2023-03-15T15:04:54.910Z,5.60
2023-03-15T15:07:21.660Z,5.60
2023-03-15T15:09:50.134Z,5.60
2023-03-15T15:12:17.318Z,5.40
2023-03-15T15:14:44.173Z,5.10
2023-03-15T15:17:10.954Z,5.10
2023-03-15T15:19:37.707Z,4.90
2023-03-15T15:22:04.616Z,4.80
2023-03-15T15:27:18.089Z,4.50
2023-03-15T15:32:31.561Z,4.80
2023-03-15T15:34:58.352Z,5.10
2023-03-15T15:37:26.006Z,5.20
2023-03-15T15:39:52.747Z,5.20
2023-03-15T15:42:19.507Z,5.10
2023-03-15T15:44:46.298Z,5.30
2023-03-15T15:47:13.032Z,5.20
2023-03-15T15:49:41.395Z,5.20
2023-03-15T15:52:12.295Z,4.90
2023-03-15T15:54:39.485Z,4.80
2023-03-15T15:57:06.888Z,4.80
2023-03-15T15:59:33.650Z,4.80
2023-03-15T16:02:02.256Z,4.70
2023-03-15T16:04:30.026Z,4.80
2023-03-15T16:06:59.930Z,4.80
2023-03-15T16:09:29.480Z,4.90
2023-03-15T16:11:56.260Z,4.80
2023-03-15T16:17:17.810Z,4.70
2023-03-15T16:19:44.869Z,4.60
2023-03-15T16:22:11.752Z,4.60
2023-03-15T16:24:39.563Z,4.40
2023-03-15T16:27:08.177Z,4.40
2023-03-15T16:29:45.952Z,4.40
2023-03-15T16:32:19.348Z,4.40
2023-03-15T16:34:53.109Z,4.20
2023-03-15T16:37:31.177Z,4.20
2023-03-15T16:40:01.463Z,4.00
2023-03-15T16:42:28.357Z,4.00
2023-03-15T16:44:55.406Z,4.00
2023-03-15T16:47:22.379Z,3.90
2023-03-15T16:52:17.304Z,3.90
2023-03-15T16:54:46.864Z,3.80
2023-03-15T16:57:20.780Z,3.80
2023-03-15T16:59:47.948Z,3.70
2023-03-15T17:02:26.874Z,3.60
2023-03-15T17:04:53.767Z,3.50
2023-03-15T17:10:23.682Z,3.30
2023-03-15T17:15:39.137Z,3.20
2023-03-15T17:18:14.109Z,3.00
2023-03-15T17:20:41.302Z,2.90
2023-03-15T17:23:08.250Z,2.90
2023-03-15T17:25:35.073Z,2.80
2023-03-15T17:28:02.029Z,2.70
2023-03-15T17:30:31.860Z,2.70
2023-03-15T17:32:58.825Z,2.60
2023-03-15T17:35:33.893Z,2.60
2023-03-15T17:38:03.068Z,2.60
2023-03-15T17:40:32.233Z,2.50
2023-03-15T17:43:01.093Z,2.50
2023-03-15T17:47:57.705Z,2.30
2023-03-15T17:50:27.883Z,2.20
2023-03-15T17:55:30.438Z,2.20
2023-03-15T17:57:57.219Z,2.10
2023-03-15T18:03:14.492Z,1.90
2023-03-15T18:08:28.151Z,1.80
2023-03-15T18:10:54.922Z,1.80
2023-03-15T18:16:12.673Z,1.70
2023-03-15T18:21:27.795Z,1.60
2023-03-15T18:23:54.803Z,1.50
2023-03-15T18:26:22.683Z,1.60
2023-03-15T18:28:50.161Z,1.50
2023-03-15T18:34:06.919Z,1.50
2023-03-15T18:36:33.678Z,1.50
2023-03-15T18:39:00.527Z,1.50
2023-03-15T18:41:27.339Z,1.40
2023-03-15T18:43:54.128Z,1.40
2023-03-15T18:46:25.604Z,1.40
2023-03-15T18:48:53.739Z,1.30
2023-03-15T18:54:09.574Z,1.30
2023-03-15T18:56:36.323Z,1.30
2023-03-15T18:59:03.559Z,1.30
2023-03-15T19:01:30.718Z,1.20
2023-03-15T19:03:57.590Z,1.20
2023-03-15T19:06:24.407Z,1.10
2023-03-15T19:08:51.232Z,1.10
2023-03-15T19:11:18.025Z,1.10
2023-03-15T19:13:45.179Z,1.10
2023-03-15T19:16:11.949Z,1.10
2023-03-15T19:18:38.781Z,1.10
2023-03-15T19:21:05.732Z,1.10
2023-03-15T19:23:32.526Z,1.10
2023-03-15T19:25:59.349Z,1.00
2023-03-15T19:28:26.163Z,1.00
2023-03-15T19:30:53.342Z,0.90
2023-03-15T19:33:20.177Z,0.90
2023-03-15T19:38:33.761Z,0.90
2023-03-15T19:41:09.298Z,0.90
2023-03-15T19:43:37.000Z,0.80
2023-03-15T19:46:04.198Z,0.80
2023-03-15T19:48:31.037Z,0.70
2023-03-15T19:50:57.802Z,0.60
2023-03-15T19:53:24.576Z,0.80
2023-03-15T19:58:38.154Z,0.70
2023-03-15T20:03:51.960Z,0.60
2023-03-15T20:06:18.785Z,0.60
2023-03-15T20:08:45.559Z,0.70
2023-03-15T20:11:12.673Z,0.60
2023-03-15T20:13:39.432Z,0.50
2023-03-15T20:16:06.777Z,0.60
2023-03-15T20:18:33.566Z,0.50
2023-03-15T20:21:00.312Z,0.50
2023-03-15T20:23:27.167Z,0.40
2023-03-15T20:26:07.831Z,0.40
2023-03-15T20:31:21.400Z,0.40
2023-03-15T20:36:36.709Z,0.30
2023-03-15T20:41:51.705Z,0.30
2023-03-15T20:44:18.676Z,0.20
2023-03-15T20:46:45.611Z,0.20
2023-03-15T20:49:12.443Z,0.20
2023-03-15T20:51:39.222Z,0.20
2023-03-15T20:54:05.985Z,0.20
2023-03-15T20:56:32.779Z,0.20
2023-03-15T20:58:59.604Z,0.20
2023-03-15T21:01:26.378Z,0.10
2023-03-15T21:03:53.137Z,0.10
2023-03-15T21:06:19.975Z,0.10
2023-03-15T21:08:46.721Z,0.00
2023-03-15T21:11:13.489Z,0.00
2023-03-15T21:13:40.277Z,0.10
2023-03-15T21:16:07.152Z,0.00
2023-03-15T21:18:34.041Z,0.00
2023-03-15T21:21:02.587Z,-0.10
2023-03-15T21:23:30.107Z,-0.10
2023-03-15T21:26:01.511Z,0.00
2023-03-15T21:28:29.106Z,0.00
2023-03-15T21:30:56.509Z,-0.10
2023-03-15T21:33:25.514Z,0.00
2023-03-15T21:35:53.113Z,0.10
2023-03-15T21:38:20.002Z,0.00
2023-03-15T21:40:48.601Z,0.10
2023-03-15T21:43:15.421Z,0.10
2023-03-15T21:45:42.378Z,0.20
2023-03-15T21:48:12.874Z,0.10
2023-03-15T21:50:39.618Z,0.00
2023-03-15T21:53:06.329Z,0.00
2023-03-15T21:55:33.135Z,0.00
2023-03-15T21:58:01.605Z,0.00
2023-03-15T22:00:29.603Z,0.00
2023-03-15T22:02:56.389Z,-0.10
2023-03-15T22:05:23.414Z,0.00
2023-03-15T22:07:50.283Z,0.00
2023-03-15T22:10:17.484Z,0.00
2023-03-15T22:12:44.246Z,0.00
2023-03-15T22:15:11.385Z,0.00
2023-03-15T22:17:38.158Z,0.00
2023-03-15T22:20:06.991Z,-0.10
2023-03-15T22:22:33.745Z,-0.10
2023-03-15T22:25:00.494Z,0.00
2023-03-15T22:27:27.322Z,0.00
2023-03-15T22:29:54.104Z,-0.10
2023-03-15T22:32:20.918Z,0.00
2023-03-15T22:34:47.673Z,-0.10
2023-03-15T22:37:14.413Z,-0.10
2023-03-15T22:39:41.275Z,-0.10
2023-03-15T22:42:08.063Z,0.00
2023-03-15T22:44:34.900Z,-0.20
2023-03-15T22:47:01.752Z,-0.10
2023-03-15T22:49:28.513Z,-0.20
2023-03-15T22:51:55.348Z,0.00
2023-03-15T22:54:22.149Z,-0.10
2023-03-15T22:56:48.902Z,-0.10
2023-03-15T22:59:15.711Z,-0.20
2023-03-15T23:01:42.480Z,-0.20
2023-03-15T23:04:09.371Z,-0.20
2023-03-15T23:06:36.156Z,-0.20
2023-03-15T23:11:49.718Z,-0.30
2023-03-15T23:17:03.806Z,-0.30
2023-03-15T23:22:20.315Z,-0.30
2023-03-15T23:24:47.109Z,-0.20
2023-03-15T23:27:14.723Z,-0.20
2023-03-15T23:29:53.678Z,-0.30
2023-03-15T23:32:21.522Z,-0.50
2023-03-15T23:34:48.334Z,-0.20
2023-03-15T23:37:15.378Z,-0.30
2023-03-15T23:39:42.742Z,-0.40
2023-03-15T23:42:09.969Z,-0.30
2023-03-15T23:44:37.084Z,-0.30
2023-03-15T23:47:04.536Z,-0.30
2023-03-15T23:49:32.397Z,-0.30
2023-03-15T23:52:00.523Z,-0.30
2023-03-15T23:54:27.282Z,-0.20
2023-03-15T23:56:54.093Z,-0.30
2023-03-15T23:59:20.849Z,-0.20
